EXS38A EGNM-LEAL
Flight info
| Callsign | EXS38A |
|---|---|
| Flight time | 2h 54m |
| Altitude | 33000 |
| Route | POL DCT MCT DCT LISTO P18 STAFA L8 HON UN859 SOPIL DCT BALAN DCT LMG DCT PIMQO DCT AGN DCT ANETO DCT POSSY DCT XIMPE DCT RIMES DCT SAURA DCT TATOS N860 PLANA DCT VLC |
| Aircraft | B733/M-SDE2E3FHIRW/S |
Departure
| Time | 2026-04-28 20:40 |
|---|---|
| Airport | Leeds Bradford Airport (EGNM) |
Arrival
| Time | 2026-04-28 23:34 |
|---|---|
| Airport | Alicante-Elche Miguel Hernández Airport (LEAL) |
| Time | Latitude | Longitude | Altitude | Speed | Heading |
|---|---|---|---|---|---|
| 2026-04-28 20:19 | 53.86883 | -1.65763 | 666 ft | 0 kts | 0° |
| 2026-04-28 20:28 | 53.86880 | -1.65762 | 666 ft | 2 kts | 1° |
| 2026-04-28 20:29 | 53.86866 | -1.65764 | 667 ft | 2 kts | 360° |
| 2026-04-28 20:29 | 53.86853 | -1.65764 | 667 ft | 0 kts | 0° |
| 2026-04-28 20:29 | 53.86841 | -1.65763 | 668 ft | 2 kts | 339° |
| 2026-04-28 20:29 | 53.86828 | -1.65750 | 668 ft | 2 kts | 316° |
| 2026-04-28 20:30 | 53.86819 | -1.65731 | 668 ft | 2 kts | 292° |
| 2026-04-28 20:30 | 53.86816 | -1.65711 | 667 ft | 0 kts | 273° |
| 2026-04-28 20:30 | 53.86816 | -1.65699 | 667 ft | 0 kts | 269° |
| 2026-04-28 20:30 | 53.86816 | -1.65698 | 667 ft | 0 kts | 269° |
| 2026-04-28 20:31 | 53.86816 | -1.65699 | 667 ft | 0 kts | 269° |
| 2026-04-28 20:33 | 53.86816 | -1.65703 | 667 ft | 1 kts | 269° |
| 2026-04-28 20:34 | 53.86815 | -1.65732 | 668 ft | 3 kts | 255° |
| 2026-04-28 20:34 | 53.86790 | -1.65761 | 669 ft | 6 kts | 190° |
| 2026-04-28 20:34 | 53.86743 | -1.65706 | 669 ft | 12 kts | 109° |
| 2026-04-28 20:34 | 53.86737 | -1.65515 | 662 ft | 19 kts | 90° |
| 2026-04-28 20:35 | 53.86704 | -1.65425 | 659 ft | 11 kts | 179° |
| 2026-04-28 20:35 | 53.86620 | -1.65432 | 662 ft | 13 kts | 182° |
| 2026-04-28 20:35 | 53.86509 | -1.65442 | 667 ft | 17 kts | 183° |
| 2026-04-28 20:35 | 53.86380 | -1.65454 | 670 ft | 20 kts | 184° |
| 2026-04-28 20:36 | 53.86354 | -1.65457 | 671 ft | 0 kts | 183° |
| 2026-04-28 20:36 | 53.86340 | -1.65459 | 671 ft | 6 kts | 183° |
| 2026-04-28 20:37 | 53.86262 | -1.65467 | 675 ft | 13 kts | 184° |
| 2026-04-28 20:37 | 53.86153 | -1.65387 | 676 ft | 22 kts | 137° |
| 2026-04-28 20:37 | 53.86023 | -1.65189 | 668 ft | 27 kts | 136° |
| 2026-04-28 20:37 | 53.85924 | -1.65009 | 657 ft | 15 kts | 114° |
| 2026-04-28 20:38 | 53.85873 | -1.64943 | 653 ft | 10 kts | 258° |
| 2026-04-28 20:38 | 53.85893 | -1.64991 | 656 ft | 0 kts | 319° |
| 2026-04-28 20:39 | 53.85986 | -1.65130 | 664 ft | 46 kts | 318° |
| 2026-04-28 20:39 | 53.86381 | -1.65738 | 681 ft | 106 kts | 317° |
| 2026-04-28 20:39 | 53.87063 | -1.66787 | 676 ft | 155 kts | 319° |
| 2026-04-28 20:39 | 53.87908 | -1.68044 | 1015 ft | 165 kts | 321° |
| 2026-04-28 20:40 | 53.88768 | -1.69382 | 1280 ft | 171 kts | 322° |
| 2026-04-28 20:40 | 53.89691 | -1.70869 | 1346 ft | 197 kts | 313° |
| 2026-04-28 20:40 | 53.90385 | -1.73000 | 1525 ft | 221 kts | 287° |
| 2026-04-28 20:40 | 53.90497 | -1.75684 | 1818 ft | 240 kts | 260° |
| 2026-04-28 20:41 | 53.89861 | -1.78372 | 2179 ft | 257 kts | 231° |
| 2026-04-28 20:41 | 53.88531 | -1.80469 | 2633 ft | 270 kts | 220° |
| 2026-04-28 20:41 | 53.87461 | -1.83164 | 3250 ft | 282 kts | 243° |
| 2026-04-28 20:41 | 53.86407 | -1.85968 | 3858 ft | 287 kts | 227° |
| 2026-04-28 20:42 | 53.85131 | -1.88560 | 4656 ft | 289 kts | 229° |
| 2026-04-28 20:42 | 53.84208 | -1.91543 | 5411 ft | 293 kts | 259° |
| 2026-04-28 20:42 | 53.84267 | -1.94908 | 6094 ft | 293 kts | 292° |
| 2026-04-28 20:42 | 53.85199 | -1.97910 | 6723 ft | 292 kts | 306° |
| 2026-04-28 20:43 | 53.86123 | -2.01006 | 6826 ft | 296 kts | 285° |
| 2026-04-28 20:43 | 53.86263 | -2.04516 | 7305 ft | 304 kts | 271° |
| 2026-04-28 20:43 | 53.86274 | -2.08056 | 8077 ft | 305 kts | 272° |
| 2026-04-28 20:43 | 53.86286 | -2.11675 | 8825 ft | 307 kts | 270° |
| 2026-04-28 20:44 | 53.85827 | -2.15149 | 9468 ft | 311 kts | 240° |
| 2026-04-28 20:44 | 53.84409 | -2.17813 | 10136 ft | 308 kts | 208° |
| 2026-04-28 20:44 | 53.82410 | -2.18911 | 10722 ft | 301 kts | 175° |
| 2026-04-28 20:44 | 53.80439 | -2.18152 | 11322 ft | 290 kts | 143° |
| 2026-04-28 20:45 | 53.78863 | -2.16156 | 11961 ft | 288 kts | 136° |
| 2026-04-28 20:45 | 53.77288 | -2.14094 | 12580 ft | 292 kts | 137° |
| 2026-04-28 20:45 | 53.75603 | -2.12183 | 13229 ft | 299 kts | 149° |
| 2026-04-28 20:45 | 53.73555 | -2.11206 | 13819 ft | 313 kts | 170° |
| 2026-04-28 20:46 | 53.71366 | -2.11483 | 14449 ft | 324 kts | 188° |
| 2026-04-28 20:46 | 53.69183 | -2.12398 | 15008 ft | 329 kts | 189° |
| 2026-04-28 20:46 | 53.66960 | -2.13348 | 15590 ft | 333 kts | 189° |
| 2026-04-28 20:46 | 53.64723 | -2.14289 | 16156 ft | 336 kts | 189° |
| 2026-04-28 20:47 | 53.62425 | -2.15247 | 16697 ft | 340 kts | 188° |
| 2026-04-28 20:47 | 53.60126 | -2.16201 | 17235 ft | 344 kts | 188° |
| 2026-04-28 20:47 | 53.57805 | -2.17159 | 17798 ft | 346 kts | 188° |
| 2026-04-28 20:47 | 53.55477 | -2.18119 | 18284 ft | 350 kts | 188° |
| 2026-04-28 20:48 | 53.53098 | -2.19099 | 18796 ft | 353 kts | 188° |
| 2026-04-28 20:48 | 53.50737 | -2.20069 | 19299 ft | 356 kts | 188° |
| 2026-04-28 20:48 | 53.48315 | -2.21062 | 19767 ft | 360 kts | 188° |
| 2026-04-28 20:48 | 53.45908 | -2.22050 | 20257 ft | 361 kts | 188° |
| 2026-04-28 20:49 | 53.43446 | -2.23058 | 20742 ft | 363 kts | 187° |
| 2026-04-28 20:49 | 53.41000 | -2.24059 | 21195 ft | 367 kts | 187° |
| 2026-04-28 20:49 | 53.38509 | -2.25074 | 21647 ft | 370 kts | 187° |
| 2026-04-28 20:49 | 53.36030 | -2.25937 | 22089 ft | 366 kts | 177° |
| 2026-04-28 20:50 | 53.33529 | -2.25751 | 22472 ft | 355 kts | 161° |
| 2026-04-28 20:50 | 53.31133 | -2.24979 | 22947 ft | 355 kts | 160° |
| 2026-04-28 20:50 | 53.28696 | -2.24194 | 23446 ft | 356 kts | 161° |
| 2026-04-28 20:50 | 53.26268 | -2.23441 | 23861 ft | 359 kts | 161° |
| 2026-04-28 20:51 | 53.23791 | -2.22692 | 24270 ft | 362 kts | 161° |
| 2026-04-28 20:51 | 53.21319 | -2.21952 | 24610 ft | 367 kts | 161° |
| 2026-04-28 20:51 | 53.18818 | -2.21211 | 25033 ft | 368 kts | 161° |
| 2026-04-28 20:51 | 53.16280 | -2.20459 | 25390 ft | 372 kts | 161° |
| 2026-04-28 20:52 | 53.13690 | -2.19941 | 25815 ft | 383 kts | 172° |
| 2026-04-28 20:52 | 53.11022 | -2.20240 | 26114 ft | 394 kts | 178° |
| 2026-04-28 20:52 | 53.08290 | -2.20749 | 26591 ft | 393 kts | 178° |
| 2026-04-28 20:52 | 53.05594 | -2.21221 | 27048 ft | 392 kts | 178° |
| 2026-04-28 20:53 | 53.00174 | -2.22100 | 27929 ft | 391 kts | 177° |
| 2026-04-28 20:53 | 52.97496 | -2.22519 | 28343 ft | 391 kts | 177° |
| 2026-04-28 20:53 | 52.94793 | -2.22937 | 28665 ft | 393 kts | 177° |
| 2026-04-28 20:54 | 52.92096 | -2.23356 | 29078 ft | 392 kts | 176° |
| 2026-04-28 20:54 | 52.89388 | -2.23759 | 29512 ft | 389 kts | 174° |
| 2026-04-28 20:54 | 52.86715 | -2.23569 | 29686 ft | 377 kts | 158° |
| 2026-04-28 20:54 | 52.84285 | -2.22248 | 29715 ft | 367 kts | 142° |
| 2026-04-28 20:55 | 52.80126 | -2.17485 | 29772 ft | 374 kts | 134° |
| 2026-04-28 20:55 | 52.75809 | -2.12328 | 29825 ft | 394 kts | 135° |
| 2026-04-28 20:56 | 52.73551 | -2.09693 | 29845 ft | 405 kts | 136° |
| 2026-04-28 20:56 | 52.71235 | -2.07008 | 29865 ft | 415 kts | 136° |
| 2026-04-28 20:56 | 52.68843 | -2.04248 | 30149 ft | 417 kts | 136° |
| 2026-04-28 20:56 | 52.66485 | -2.01536 | 30622 ft | 415 kts | 136° |
| 2026-04-28 20:57 | 52.64146 | -1.98850 | 31179 ft | 411 kts | 135° |
| 2026-04-28 20:57 | 52.61811 | -1.96168 | 31689 ft | 408 kts | 135° |
| 2026-04-28 20:57 | 52.59487 | -1.93498 | 32055 ft | 408 kts | 135° |
| 2026-04-28 20:57 | 52.57182 | -1.90854 | 32430 ft | 407 kts | 135° |
| 2026-04-28 20:58 | 52.54854 | -1.88187 | 32784 ft | 407 kts | 135° |
| 2026-04-28 20:58 | 52.52556 | -1.85560 | 32911 ft | 406 kts | 135° |
| 2026-04-28 20:58 | 52.47902 | -1.80247 | 32911 ft | 406 kts | 135° |
| 2026-04-28 20:59 | 52.43286 | -1.74990 | 32915 ft | 407 kts | 135° |
| 2026-04-28 20:59 | 52.38634 | -1.69708 | 32907 ft | 409 kts | 135° |
| 2026-04-28 21:00 | 52.33658 | -1.65069 | 32916 ft | 426 kts | 152° |
| 2026-04-28 21:00 | 52.27957 | -1.62275 | 32911 ft | 429 kts | 153° |
| 2026-04-28 21:01 | 52.22303 | -1.59391 | 32897 ft | 424 kts | 152° |
| 2026-04-28 21:01 | 52.16695 | -1.56479 | 32897 ft | 425 kts | 152° |
| 2026-04-28 21:02 | 52.11093 | -1.53574 | 32897 ft | 424 kts | 152° |
| 2026-04-28 21:02 | 52.05481 | -1.50670 | 32870 ft | 425 kts | 152° |
| 2026-04-28 21:03 | 51.99829 | -1.47753 | 32872 ft | 424 kts | 152° |
| 2026-04-28 21:03 | 51.94205 | -1.44861 | 32880 ft | 422 kts | 152° |
| 2026-04-28 21:04 | 51.88663 | -1.42019 | 32804 ft | 421 kts | 152° |
| 2026-04-28 21:04 | 51.83047 | -1.39156 | 32871 ft | 423 kts | 152° |
| 2026-04-28 21:05 | 51.77463 | -1.36313 | 32852 ft | 420 kts | 152° |
| 2026-04-28 21:05 | 51.71914 | -1.33480 | 32848 ft | 421 kts | 153° |
| 2026-04-28 21:06 | 51.66287 | -1.30610 | 32849 ft | 424 kts | 153° |
| 2026-04-28 21:06 | 51.60707 | -1.27791 | 32838 ft | 420 kts | 153° |
| 2026-04-28 21:07 | 51.55136 | -1.24973 | 32833 ft | 422 kts | 153° |
| 2026-04-28 21:07 | 51.49571 | -1.22164 | 32826 ft | 419 kts | 152° |
| 2026-04-28 21:08 | 51.44320 | -1.18464 | 32835 ft | 411 kts | 146° |
| 2026-04-28 21:08 | 51.39142 | -1.14594 | 32829 ft | 410 kts | 146° |
| 2026-04-28 21:09 | 51.33962 | -1.10780 | 32814 ft | 411 kts | 146° |
| 2026-04-28 21:09 | 51.28764 | -1.06968 | 32829 ft | 413 kts | 146° |
| 2026-04-28 21:10 | 51.23553 | -1.03165 | 32794 ft | 410 kts | 146° |
| 2026-04-28 21:10 | 51.18377 | -0.99390 | 32802 ft | 413 kts | 146° |
| 2026-04-28 21:11 | 51.13151 | -0.95591 | 32814 ft | 412 kts | 146° |
| 2026-04-28 21:11 | 51.07962 | -0.91828 | 32778 ft | 412 kts | 147° |
| 2026-04-28 21:12 | 51.02743 | -0.88051 | 32771 ft | 410 kts | 146° |
| 2026-04-28 21:12 | 50.97572 | -0.84314 | 32782 ft | 414 kts | 146° |
| 2026-04-28 21:13 | 50.92281 | -0.80502 | 32789 ft | 418 kts | 146° |
| 2026-04-28 21:13 | 50.87010 | -0.76731 | 32774 ft | 415 kts | 147° |
| 2026-04-28 21:14 | 50.82120 | -0.72328 | 32771 ft | 406 kts | 138° |
| 2026-04-28 21:14 | 50.77384 | -0.67417 | 32787 ft | 406 kts | 139° |
| 2026-04-28 21:15 | 50.72612 | -0.62547 | 32789 ft | 408 kts | 139° |
| 2026-04-28 21:15 | 50.67881 | -0.57748 | 32778 ft | 407 kts | 139° |
| 2026-04-28 21:16 | 50.63119 | -0.52931 | 32764 ft | 406 kts | 140° |
| 2026-04-28 21:16 | 50.58347 | -0.48114 | 32765 ft | 407 kts | 140° |
| 2026-04-28 21:17 | 50.53596 | -0.43330 | 32753 ft | 409 kts | 140° |
| 2026-04-28 21:17 | 50.48803 | -0.38517 | 32756 ft | 409 kts | 140° |
| 2026-04-28 21:18 | 50.44023 | -0.33726 | 32743 ft | 408 kts | 141° |
| 2026-04-28 21:18 | 50.39263 | -0.28950 | 32749 ft | 410 kts | 141° |
| 2026-04-28 21:19 | 50.34444 | -0.24141 | 32751 ft | 411 kts | 141° |
| 2026-04-28 21:19 | 50.29626 | -0.19350 | 32742 ft | 410 kts | 142° |
| 2026-04-28 21:20 | 50.24803 | -0.14565 | 32737 ft | 411 kts | 142° |
| 2026-04-28 21:20 | 50.19964 | -0.09775 | 32739 ft | 411 kts | 142° |
| 2026-04-28 21:21 | 50.15138 | -0.05010 | 32726 ft | 412 kts | 142° |
| 2026-04-28 21:21 | 50.10283 | -0.00290 | 32711 ft | 415 kts | 148° |
| 2026-04-28 21:22 | 50.07542 | 0.01193 | 32740 ft | 422 kts | 161° |
| 2026-04-28 21:22 | 50.04663 | 0.02247 | 32712 ft | 426 kts | 162° |
| 2026-04-28 21:22 | 49.98942 | 0.04388 | 32706 ft | 423 kts | 161° |
| 2026-04-28 21:23 | 49.93247 | 0.06614 | 32765 ft | 421 kts | 162° |
| 2026-04-28 21:23 | 49.87570 | 0.08836 | 32733 ft | 416 kts | 163° |
| 2026-04-28 21:24 | 49.82048 | 0.10988 | 32635 ft | 407 kts | 163° |
| 2026-04-28 21:24 | 49.76535 | 0.13141 | 32627 ft | 409 kts | 164° |
| 2026-04-28 21:25 | 49.71064 | 0.15272 | 32642 ft | 408 kts | 164° |
| 2026-04-28 21:25 | 49.65575 | 0.17442 | 32635 ft | 407 kts | 164° |
| 2026-04-28 21:26 | 49.60129 | 0.19639 | 32632 ft | 405 kts | 164° |
| 2026-04-28 21:26 | 49.54679 | 0.21832 | 32629 ft | 403 kts | 165° |
| 2026-04-28 21:27 | 49.49264 | 0.24007 | 32630 ft | 403 kts | 165° |
| 2026-04-28 21:27 | 49.43847 | 0.26177 | 32642 ft | 403 kts | 165° |
| 2026-04-28 21:28 | 49.38446 | 0.28336 | 32631 ft | 402 kts | 165° |
| 2026-04-28 21:28 | 49.33036 | 0.30493 | 32612 ft | 402 kts | 166° |
| 2026-04-28 21:29 | 49.27619 | 0.32723 | 32613 ft | 402 kts | 166° |
| 2026-04-28 21:29 | 49.22223 | 0.35003 | 32605 ft | 403 kts | 166° |
| 2026-04-28 21:30 | 49.16864 | 0.37260 | 32597 ft | 402 kts | 166° |
| 2026-04-28 21:30 | 49.11456 | 0.39532 | 32582 ft | 404 kts | 167° |
| 2026-04-28 21:31 | 49.06046 | 0.41799 | 32586 ft | 404 kts | 167° |
| 2026-04-28 21:31 | 49.00652 | 0.44054 | 32571 ft | 403 kts | 167° |
| 2026-04-28 21:32 | 48.95224 | 0.46318 | 32585 ft | 404 kts | 167° |
| 2026-04-28 21:32 | 48.89858 | 0.48551 | 32583 ft | 403 kts | 167° |
| 2026-04-28 21:33 | 48.84454 | 0.50790 | 32572 ft | 400 kts | 168° |
| 2026-04-28 21:33 | 48.79072 | 0.53014 | 32580 ft | 401 kts | 168° |
| 2026-04-28 21:34 | 48.73672 | 0.55135 | 32580 ft | 401 kts | 169° |
| 2026-04-28 21:34 | 48.68279 | 0.57246 | 32577 ft | 400 kts | 169° |
| 2026-04-28 21:35 | 48.62897 | 0.59351 | 32561 ft | 399 kts | 169° |
| 2026-04-28 21:35 | 48.57558 | 0.61436 | 32565 ft | 399 kts | 169° |
| 2026-04-28 21:36 | 48.52193 | 0.63530 | 32566 ft | 397 kts | 169° |
| 2026-04-28 21:36 | 48.46833 | 0.65708 | 32546 ft | 400 kts | 170° |
| 2026-04-28 21:37 | 48.41517 | 0.67892 | 32554 ft | 397 kts | 170° |
| 2026-04-28 21:37 | 48.36162 | 0.70068 | 32552 ft | 399 kts | 171° |
| 2026-04-28 21:38 | 48.30814 | 0.72233 | 32526 ft | 397 kts | 171° |
| 2026-04-28 21:38 | 48.25456 | 0.74396 | 32535 ft | 398 kts | 171° |
| 2026-04-28 21:39 | 48.20109 | 0.76506 | 32530 ft | 398 kts | 171° |
| 2026-04-28 21:39 | 48.14798 | 0.78594 | 32527 ft | 398 kts | 171° |
| 2026-04-28 21:40 | 48.09450 | 0.80695 | 32527 ft | 397 kts | 171° |
| 2026-04-28 21:40 | 48.04093 | 0.82793 | 32529 ft | 399 kts | 172° |
| 2026-04-28 21:41 | 47.98735 | 0.84889 | 32517 ft | 398 kts | 172° |
| 2026-04-28 21:41 | 47.93374 | 0.86981 | 32513 ft | 400 kts | 172° |
| 2026-04-28 21:42 | 47.87999 | 0.89073 | 32473 ft | 400 kts | 172° |
| 2026-04-28 21:42 | 47.82639 | 0.91151 | 32502 ft | 400 kts | 172° |
| 2026-04-28 21:43 | 47.77213 | 0.93248 | 32512 ft | 400 kts | 172° |
| 2026-04-28 21:43 | 47.71854 | 0.95321 | 32498 ft | 400 kts | 172° |
| 2026-04-28 21:44 | 47.66458 | 0.97403 | 32501 ft | 401 kts | 172° |
| 2026-04-28 21:44 | 47.61068 | 0.99481 | 32496 ft | 401 kts | 172° |
| 2026-04-28 21:45 | 47.55650 | 1.01564 | 32503 ft | 401 kts | 172° |
| 2026-04-28 21:45 | 47.50244 | 1.03638 | 32496 ft | 403 kts | 172° |
| 2026-04-28 21:46 | 47.44831 | 1.05709 | 32503 ft | 402 kts | 172° |
| 2026-04-28 21:46 | 47.42136 | 1.06512 | 32479 ft | 393 kts | 184° |
| 2026-04-28 21:46 | 47.39418 | 1.06492 | 32511 ft | 391 kts | 187° |
| 2026-04-28 21:47 | 47.33971 | 1.06265 | 32514 ft | 392 kts | 187° |
| 2026-04-28 21:47 | 47.28530 | 1.06114 | 32510 ft | 393 kts | 186° |
| 2026-04-28 21:48 | 47.23069 | 1.05981 | 32505 ft | 392 kts | 186° |
| 2026-04-28 21:48 | 47.17620 | 1.05853 | 32516 ft | 393 kts | 186° |
| 2026-04-28 21:49 | 47.12169 | 1.05726 | 32503 ft | 393 kts | 187° |
| 2026-04-28 21:49 | 47.06720 | 1.05598 | 32507 ft | 392 kts | 186° |
| 2026-04-28 21:50 | 47.01230 | 1.05448 | 32502 ft | 395 kts | 187° |
| 2026-04-28 21:50 | 46.95755 | 1.05211 | 32501 ft | 394 kts | 187° |
| 2026-04-28 21:51 | 46.90247 | 1.04973 | 32504 ft | 395 kts | 187° |
| 2026-04-28 21:51 | 46.84792 | 1.04744 | 32493 ft | 394 kts | 187° |
| 2026-04-28 21:52 | 46.79311 | 1.04510 | 32500 ft | 396 kts | 187° |
| 2026-04-28 21:52 | 46.73780 | 1.04275 | 32506 ft | 395 kts | 187° |
| 2026-04-28 21:53 | 46.68303 | 1.04043 | 32499 ft | 394 kts | 187° |
| 2026-04-28 21:53 | 46.62782 | 1.03808 | 32495 ft | 396 kts | 187° |
| 2026-04-28 21:54 | 46.57296 | 1.03577 | 32493 ft | 395 kts | 187° |
| 2026-04-28 21:54 | 46.51771 | 1.03346 | 32502 ft | 396 kts | 187° |
| 2026-04-28 21:55 | 46.46231 | 1.03272 | 32498 ft | 397 kts | 186° |
| 2026-04-28 21:55 | 46.40734 | 1.03217 | 32492 ft | 397 kts | 186° |
| 2026-04-28 21:56 | 46.35189 | 1.03155 | 32485 ft | 397 kts | 186° |
| 2026-04-28 21:56 | 46.29684 | 1.03093 | 32496 ft | 397 kts | 186° |
| 2026-04-28 21:57 | 46.24159 | 1.03032 | 32486 ft | 397 kts | 186° |
| 2026-04-28 21:57 | 46.18602 | 1.02969 | 32490 ft | 398 kts | 186° |
| 2026-04-28 21:58 | 46.13052 | 1.02907 | 32491 ft | 398 kts | 186° |
| 2026-04-28 21:58 | 46.07526 | 1.02845 | 32482 ft | 398 kts | 186° |
| 2026-04-28 21:59 | 46.01989 | 1.02784 | 32492 ft | 398 kts | 186° |
| 2026-04-28 22:00 | 45.93660 | 1.02692 | 32500 ft | 399 kts | 186° |
| 2026-04-28 22:00 | 45.88074 | 1.02630 | 32457 ft | 400 kts | 186° |
| 2026-04-28 22:01 | 45.82534 | 1.02573 | 32502 ft | 400 kts | 185° |
| 2026-04-28 22:01 | 45.76952 | 1.03674 | 32501 ft | 408 kts | 175° |
| 2026-04-28 22:02 | 45.71379 | 1.05178 | 32492 ft | 407 kts | 175° |
| 2026-04-28 22:02 | 45.65789 | 1.06626 | 32486 ft | 408 kts | 175° |
| 2026-04-28 22:03 | 45.60201 | 1.08061 | 32483 ft | 409 kts | 175° |
| 2026-04-28 22:03 | 45.54585 | 1.09499 | 32490 ft | 409 kts | 175° |
| 2026-04-28 22:04 | 45.49015 | 1.10923 | 32489 ft | 408 kts | 175° |
| 2026-04-28 22:04 | 45.43404 | 1.12353 | 32492 ft | 409 kts | 175° |
| 2026-04-28 22:05 | 45.37789 | 1.13782 | 32483 ft | 410 kts | 175° |
| 2026-04-28 22:05 | 45.32172 | 1.15208 | 32495 ft | 411 kts | 175° |
| 2026-04-28 22:06 | 45.26514 | 1.16643 | 32486 ft | 410 kts | 175° |
| 2026-04-28 22:06 | 45.20892 | 1.18065 | 32490 ft | 410 kts | 175° |
| 2026-04-28 22:07 | 45.15270 | 1.19230 | 32459 ft | 403 kts | 188° |
| 2026-04-28 22:07 | 45.09837 | 1.17849 | 32496 ft | 399 kts | 195° |
| 2026-04-28 22:08 | 45.04368 | 1.16363 | 32491 ft | 399 kts | 194° |
| 2026-04-28 22:08 | 44.98902 | 1.14947 | 32486 ft | 399 kts | 194° |
| 2026-04-28 22:09 | 44.93443 | 1.13547 | 32488 ft | 400 kts | 194° |
| 2026-04-28 22:09 | 44.87944 | 1.12144 | 32447 ft | 400 kts | 194° |
| 2026-04-28 22:10 | 44.82486 | 1.10758 | 32486 ft | 401 kts | 194° |
| 2026-04-28 22:10 | 44.76976 | 1.09357 | 32487 ft | 400 kts | 194° |
| 2026-04-28 22:11 | 44.71511 | 1.07969 | 32486 ft | 401 kts | 194° |
| 2026-04-28 22:11 | 44.65990 | 1.06569 | 32481 ft | 402 kts | 194° |
| 2026-04-28 22:12 | 44.60518 | 1.05185 | 32486 ft | 401 kts | 194° |
| 2026-04-28 22:12 | 44.54982 | 1.03786 | 32490 ft | 402 kts | 194° |
| 2026-04-28 22:13 | 44.49503 | 1.02405 | 32490 ft | 403 kts | 194° |
| 2026-04-28 22:13 | 44.43972 | 1.01013 | 32485 ft | 402 kts | 194° |
| 2026-04-28 22:14 | 44.38480 | 0.99634 | 32484 ft | 403 kts | 194° |
| 2026-04-28 22:14 | 44.32935 | 0.98244 | 32489 ft | 403 kts | 194° |
| 2026-04-28 22:15 | 44.27435 | 0.96868 | 32475 ft | 404 kts | 194° |
| 2026-04-28 22:15 | 44.21875 | 0.95479 | 32469 ft | 406 kts | 194° |
| 2026-04-28 22:16 | 44.16296 | 0.94088 | 32493 ft | 407 kts | 194° |
| 2026-04-28 22:16 | 44.10741 | 0.92707 | 32490 ft | 406 kts | 194° |
| 2026-04-28 22:17 | 44.05156 | 0.91321 | 32499 ft | 407 kts | 194° |
| 2026-04-28 22:17 | 43.99575 | 0.89939 | 32498 ft | 405 kts | 194° |
| 2026-04-28 22:18 | 43.94013 | 0.88564 | 32468 ft | 403 kts | 194° |
| 2026-04-28 22:18 | 43.88517 | 0.87203 | 32443 ft | 401 kts | 195° |
| 2026-04-28 22:19 | 43.83080 | 0.85767 | 32474 ft | 399 kts | 195° |
| 2026-04-28 22:19 | 43.77607 | 0.84302 | 32484 ft | 399 kts | 195° |
| 2026-04-28 22:20 | 43.72160 | 0.82845 | 32472 ft | 399 kts | 195° |
| 2026-04-28 22:20 | 43.66700 | 0.81389 | 32478 ft | 400 kts | 195° |
| 2026-04-28 22:21 | 43.61219 | 0.79929 | 32479 ft | 400 kts | 195° |
| 2026-04-28 22:21 | 43.55782 | 0.78484 | 32475 ft | 399 kts | 195° |
| 2026-04-28 22:22 | 43.50273 | 0.77021 | 32476 ft | 401 kts | 195° |
| 2026-04-28 22:22 | 43.44793 | 0.75570 | 32474 ft | 401 kts | 195° |
| 2026-04-28 22:23 | 43.39294 | 0.74116 | 32475 ft | 402 kts | 195° |
| 2026-04-28 22:23 | 43.33808 | 0.72669 | 32476 ft | 402 kts | 195° |
| 2026-04-28 22:24 | 43.28327 | 0.71225 | 32475 ft | 403 kts | 195° |
| 2026-04-28 22:24 | 43.22836 | 0.69781 | 32475 ft | 402 kts | 195° |
| 2026-04-28 22:25 | 43.17310 | 0.68330 | 32480 ft | 403 kts | 194° |
| 2026-04-28 22:25 | 43.11823 | 0.66888 | 32485 ft | 403 kts | 194° |
| 2026-04-28 22:26 | 43.06305 | 0.65444 | 32485 ft | 404 kts | 195° |
| 2026-04-28 22:26 | 43.00782 | 0.64002 | 32489 ft | 404 kts | 194° |
| 2026-04-28 22:27 | 42.95264 | 0.62565 | 32483 ft | 404 kts | 194° |
| 2026-04-28 22:27 | 42.89740 | 0.61128 | 32498 ft | 404 kts | 194° |
| 2026-04-28 22:28 | 42.84187 | 0.59694 | 32508 ft | 403 kts | 195° |
| 2026-04-28 22:28 | 42.78698 | 0.58275 | 32519 ft | 398 kts | 195° |
| 2026-04-28 22:29 | 42.73300 | 0.56879 | 32507 ft | 396 kts | 195° |
| 2026-04-28 22:29 | 42.67962 | 0.55119 | 32510 ft | 392 kts | 208° |
| 2026-04-28 22:30 | 42.63012 | 0.51879 | 32525 ft | 392 kts | 209° |
| 2026-04-28 22:30 | 42.58109 | 0.48700 | 32505 ft | 391 kts | 209° |
| 2026-04-28 22:31 | 42.53154 | 0.45523 | 32511 ft | 393 kts | 209° |
| 2026-04-28 22:31 | 42.48201 | 0.42360 | 32507 ft | 392 kts | 209° |
| 2026-04-28 22:32 | 42.43282 | 0.39224 | 32501 ft | 393 kts | 209° |
| 2026-04-28 22:32 | 42.38311 | 0.36061 | 32497 ft | 393 kts | 208° |
| 2026-04-28 22:33 | 42.33360 | 0.32904 | 32499 ft | 394 kts | 208° |
| 2026-04-28 22:33 | 42.28406 | 0.29751 | 32495 ft | 395 kts | 208° |
| 2026-04-28 22:34 | 42.23444 | 0.26609 | 32491 ft | 395 kts | 208° |
| 2026-04-28 22:34 | 42.18431 | 0.23438 | 32494 ft | 396 kts | 208° |
| 2026-04-28 22:35 | 42.13459 | 0.20305 | 32495 ft | 395 kts | 208° |
| 2026-04-28 22:35 | 42.08469 | 0.17163 | 32492 ft | 396 kts | 208° |
| 2026-04-28 22:36 | 42.03187 | 0.15113 | 32516 ft | 404 kts | 189° |
| 2026-04-28 22:36 | 41.97566 | 0.14389 | 32480 ft | 405 kts | 190° |
| 2026-04-28 22:37 | 41.91942 | 0.13576 | 32494 ft | 404 kts | 191° |
| 2026-04-28 22:37 | 41.86418 | 0.12757 | 32459 ft | 397 kts | 191° |
| 2026-04-28 22:38 | 41.80929 | 0.11939 | 32469 ft | 396 kts | 191° |
| 2026-04-28 22:38 | 41.75447 | 0.11120 | 32470 ft | 397 kts | 191° |
| 2026-04-28 22:39 | 41.69945 | 0.10300 | 32478 ft | 399 kts | 191° |
| 2026-04-28 22:39 | 41.64422 | 0.09479 | 32473 ft | 398 kts | 191° |
| 2026-04-28 22:40 | 41.58923 | 0.08663 | 32472 ft | 399 kts | 191° |
| 2026-04-28 22:40 | 41.53412 | 0.07846 | 32480 ft | 400 kts | 191° |
| 2026-04-28 22:41 | 41.47858 | 0.07024 | 32483 ft | 400 kts | 191° |
| 2026-04-28 22:41 | 41.42338 | 0.06209 | 32479 ft | 400 kts | 191° |
| 2026-04-28 22:42 | 41.36772 | 0.05387 | 32447 ft | 403 kts | 190° |
| 2026-04-28 22:42 | 41.31144 | 0.04557 | 32441 ft | 414 kts | 190° |
| 2026-04-28 22:43 | 41.25352 | 0.03707 | 32459 ft | 419 kts | 189° |
| 2026-04-28 22:43 | 41.19550 | 0.02857 | 32446 ft | 418 kts | 189° |
| 2026-04-28 22:44 | 41.13789 | 0.02014 | 32451 ft | 417 kts | 189° |
| 2026-04-28 22:44 | 41.07995 | 0.01169 | 32445 ft | 418 kts | 189° |
| 2026-04-28 22:45 | 41.02222 | 0.00330 | 32449 ft | 416 kts | 189° |
| 2026-04-28 22:45 | 40.96454 | -0.00511 | 32453 ft | 417 kts | 189° |
| 2026-04-28 22:46 | 40.90718 | -0.01346 | 32458 ft | 416 kts | 189° |
| 2026-04-28 22:46 | 40.84915 | -0.02186 | 32475 ft | 417 kts | 189° |
| 2026-04-28 22:47 | 40.79160 | -0.03019 | 32490 ft | 418 kts | 188° |
| 2026-04-28 22:47 | 40.73387 | -0.03855 | 32494 ft | 418 kts | 189° |
| 2026-04-28 22:48 | 40.67584 | -0.04694 | 32498 ft | 417 kts | 188° |
| 2026-04-28 22:48 | 40.61813 | -0.05527 | 32506 ft | 418 kts | 188° |
| 2026-04-28 22:49 | 40.56030 | -0.06377 | 32514 ft | 417 kts | 191° |
| 2026-04-28 22:49 | 40.50503 | -0.08415 | 32516 ft | 416 kts | 199° |
| 2026-04-28 22:50 | 40.44951 | -0.10679 | 32523 ft | 415 kts | 199° |
| 2026-04-28 22:50 | 40.39428 | -0.12875 | 32514 ft | 416 kts | 199° |
| 2026-04-28 22:51 | 40.33874 | -0.15071 | 32513 ft | 417 kts | 198° |
| 2026-04-28 22:51 | 40.28339 | -0.17254 | 32527 ft | 417 kts | 199° |
| 2026-04-28 22:52 | 40.22787 | -0.19439 | 32514 ft | 416 kts | 198° |
| 2026-04-28 22:52 | 40.17247 | -0.21615 | 32514 ft | 417 kts | 198° |
| 2026-04-28 22:53 | 40.11697 | -0.23792 | 32503 ft | 417 kts | 198° |
| 2026-04-28 22:53 | 40.06135 | -0.25972 | 32504 ft | 418 kts | 198° |
| 2026-04-28 22:54 | 40.00568 | -0.28149 | 32502 ft | 418 kts | 198° |
| 2026-04-28 22:54 | 39.94981 | -0.30326 | 32498 ft | 417 kts | 198° |
| 2026-04-28 22:55 | 39.89433 | -0.32486 | 32483 ft | 418 kts | 198° |
| 2026-04-28 22:55 | 39.83848 | -0.34648 | 32490 ft | 419 kts | 198° |
| 2026-04-28 22:56 | 39.78275 | -0.36811 | 32344 ft | 419 kts | 198° |
| 2026-04-28 22:56 | 39.75470 | -0.37899 | 31536 ft | 418 kts | 198° |
| 2026-04-28 22:56 | 39.72707 | -0.38970 | 30647 ft | 418 kts | 198° |
| 2026-04-28 22:56 | 39.69917 | -0.40051 | 29843 ft | 415 kts | 197° |
| 2026-04-28 22:57 | 39.67194 | -0.41104 | 29119 ft | 411 kts | 197° |
| 2026-04-28 22:57 | 39.64462 | -0.42161 | 28396 ft | 408 kts | 197° |
| 2026-04-28 22:57 | 39.61762 | -0.43205 | 27679 ft | 404 kts | 197° |
| 2026-04-28 22:57 | 39.59071 | -0.44244 | 26974 ft | 410 kts | 197° |
| 2026-04-28 22:58 | 39.56307 | -0.45311 | 26335 ft | 414 kts | 197° |
| 2026-04-28 22:58 | 39.53583 | -0.46360 | 25805 ft | 406 kts | 197° |
| 2026-04-28 22:58 | 39.50918 | -0.47387 | 25286 ft | 397 kts | 197° |
| 2026-04-28 22:58 | 39.48278 | -0.48393 | 24760 ft | 389 kts | 196° |
| 2026-04-28 22:59 | 39.45723 | -0.49311 | 24245 ft | 382 kts | 196° |
| 2026-04-28 22:59 | 39.43158 | -0.50223 | 23727 ft | 376 kts | 196° |
| 2026-04-28 22:59 | 39.40680 | -0.51105 | 23228 ft | 369 kts | 196° |
| 2026-04-28 22:59 | 39.38221 | -0.51981 | 22740 ft | 363 kts | 196° |
| 2026-04-28 23:00 | 39.35799 | -0.52844 | 22250 ft | 358 kts | 196° |
| 2026-04-28 23:00 | 39.33421 | -0.53691 | 21767 ft | 353 kts | 196° |
| 2026-04-28 23:00 | 39.31086 | -0.54523 | 21294 ft | 349 kts | 196° |
| 2026-04-28 23:00 | 39.28759 | -0.55351 | 20825 ft | 344 kts | 196° |
| 2026-04-28 23:01 | 39.26470 | -0.56165 | 20363 ft | 339 kts | 196° |
| 2026-04-28 23:01 | 39.24225 | -0.56963 | 19912 ft | 335 kts | 196° |
| 2026-04-28 23:01 | 39.21989 | -0.57756 | 19469 ft | 330 kts | 196° |
| 2026-04-28 23:01 | 39.19802 | -0.58533 | 19032 ft | 327 kts | 196° |
| 2026-04-28 23:02 | 39.17607 | -0.59311 | 18593 ft | 323 kts | 196° |
| 2026-04-28 23:02 | 39.15468 | -0.60070 | 18154 ft | 319 kts | 196° |
| 2026-04-28 23:02 | 39.13340 | -0.60823 | 17731 ft | 315 kts | 197° |
| 2026-04-28 23:02 | 39.11230 | -0.61570 | 17317 ft | 312 kts | 196° |
| 2026-04-28 23:03 | 39.09141 | -0.62309 | 16895 ft | 308 kts | 196° |
| 2026-04-28 23:03 | 39.07097 | -0.63032 | 16487 ft | 305 kts | 196° |
| 2026-04-28 23:03 | 39.05061 | -0.63751 | 16078 ft | 303 kts | 196° |
| 2026-04-28 23:03 | 39.03048 | -0.64463 | 15667 ft | 300 kts | 196° |
| 2026-04-28 23:04 | 39.01046 | -0.65170 | 15267 ft | 297 kts | 196° |
| 2026-04-28 23:04 | 38.97171 | -0.66554 | 15018 ft | 284 kts | 195° |
| 2026-04-28 23:04 | 38.95266 | -0.67230 | 14767 ft | 281 kts | 195° |
| 2026-04-28 23:05 | 38.93406 | -0.67888 | 14347 ft | 280 kts | 196° |
| 2026-04-28 23:05 | 38.91531 | -0.68550 | 13931 ft | 280 kts | 196° |
| 2026-04-28 23:05 | 38.89654 | -0.69211 | 13530 ft | 278 kts | 196° |
| 2026-04-28 23:05 | 38.87794 | -0.69863 | 13172 ft | 276 kts | 195° |
| 2026-04-28 23:06 | 38.85933 | -0.70514 | 12825 ft | 274 kts | 195° |
| 2026-04-28 23:06 | 38.84114 | -0.71151 | 12460 ft | 273 kts | 195° |
| 2026-04-28 23:06 | 38.82272 | -0.71797 | 12081 ft | 272 kts | 195° |
| 2026-04-28 23:06 | 38.80460 | -0.72432 | 11705 ft | 272 kts | 195° |
| 2026-04-28 23:07 | 38.78630 | -0.73073 | 11337 ft | 270 kts | 195° |
| 2026-04-28 23:07 | 38.76829 | -0.73704 | 10983 ft | 269 kts | 195° |
| 2026-04-28 23:07 | 38.75029 | -0.74335 | 10628 ft | 267 kts | 195° |
| 2026-04-28 23:07 | 38.73244 | -0.74960 | 10262 ft | 267 kts | 195° |
| 2026-04-28 23:08 | 38.71453 | -0.75586 | 9931 ft | 264 kts | 195° |
| 2026-04-28 23:08 | 38.69726 | -0.76191 | 9872 ft | 250 kts | 195° |
| 2026-04-28 23:08 | 38.68041 | -0.76780 | 9922 ft | 258 kts | 195° |
| 2026-04-28 23:08 | 38.66290 | -0.77391 | 9932 ft | 265 kts | 194° |
| 2026-04-28 23:09 | 38.64524 | -0.78008 | 9643 ft | 262 kts | 194° |
| 2026-04-28 23:09 | 38.62736 | -0.78632 | 9206 ft | 265 kts | 194° |
| 2026-04-28 23:09 | 38.60980 | -0.79244 | 8797 ft | 266 kts | 194° |
| 2026-04-28 23:09 | 38.59199 | -0.79865 | 8425 ft | 265 kts | 194° |
| 2026-04-28 23:10 | 38.57407 | -0.80490 | 8074 ft | 263 kts | 194° |
| 2026-04-28 23:10 | 38.55660 | -0.81099 | 7873 ft | 256 kts | 194° |
| 2026-04-28 23:10 | 38.53990 | -0.81682 | 7802 ft | 244 kts | 195° |
| 2026-04-28 23:10 | 38.52388 | -0.82265 | 7664 ft | 236 kts | 195° |
| 2026-04-28 23:11 | 38.50800 | -0.82846 | 7277 ft | 240 kts | 195° |
| 2026-04-28 23:11 | 38.49185 | -0.83437 | 6850 ft | 245 kts | 195° |
| 2026-04-28 23:11 | 38.47522 | -0.84045 | 6462 ft | 247 kts | 195° |
| 2026-04-28 23:11 | 38.45870 | -0.84651 | 6110 ft | 248 kts | 195° |
| 2026-04-28 23:12 | 38.44213 | -0.85258 | 5765 ft | 249 kts | 195° |
| 2026-04-28 23:12 | 38.42558 | -0.85864 | 5420 ft | 249 kts | 195° |
| 2026-04-28 23:12 | 38.40881 | -0.86478 | 5064 ft | 250 kts | 195° |
| 2026-04-28 23:12 | 38.39214 | -0.87088 | 4706 ft | 249 kts | 195° |
| 2026-04-28 23:13 | 38.37539 | -0.87701 | 4347 ft | 247 kts | 195° |
| 2026-04-28 23:13 | 38.35885 | -0.88306 | 4038 ft | 243 kts | 195° |
| 2026-04-28 23:13 | 38.34255 | -0.88523 | 3910 ft | 231 kts | 164° |
| 2026-04-28 23:13 | 38.32917 | -0.87556 | 3933 ft | 225 kts | 131° |
| 2026-04-28 23:14 | 38.32123 | -0.85851 | 3586 ft | 227 kts | 100° |
| 2026-04-28 23:14 | 38.31912 | -0.83895 | 3383 ft | 217 kts | 97° |
| 2026-04-28 23:14 | 38.31706 | -0.81989 | 3298 ft | 218 kts | 96° |
| 2026-04-28 23:14 | 38.31505 | -0.80088 | 3310 ft | 217 kts | 96° |
| 2026-04-28 23:15 | 38.31308 | -0.78189 | 3332 ft | 216 kts | 96° |
| 2026-04-28 23:15 | 38.31073 | -0.76282 | 3287 ft | 214 kts | 99° |
| 2026-04-28 23:15 | 38.30816 | -0.74465 | 3012 ft | 207 kts | 98° |
| 2026-04-28 23:15 | 38.30568 | -0.72684 | 2656 ft | 209 kts | 98° |
| 2026-04-28 23:16 | 38.30297 | -0.70730 | 2348 ft | 230 kts | 98° |
| 2026-04-28 23:16 | 38.30029 | -0.68812 | 2006 ft | 215 kts | 98° |
| 2026-04-28 23:16 | 38.29768 | -0.66926 | 1629 ft | 206 kts | 98° |
| 2026-04-28 23:16 | 38.29529 | -0.65304 | 1643 ft | 178 kts | 99° |
| 2026-04-28 23:17 | 38.29332 | -0.63807 | 1344 ft | 166 kts | 96° |
| 2026-04-28 23:17 | 38.29143 | -0.62411 | 1075 ft | 156 kts | 99° |
| 2026-04-28 23:17 | 38.28946 | -0.61076 | 766 ft | 150 kts | 98° |
| 2026-04-28 23:17 | 38.28776 | -0.59812 | 519 ft | 142 kts | 98° |
| 2026-04-28 23:18 | 38.28609 | -0.58592 | 341 ft | 141 kts | 98° |
| 2026-04-28 23:18 | 38.28432 | -0.57347 | 178 ft | 144 kts | 99° |
| 2026-04-28 23:18 | 38.28264 | -0.56136 | 99 ft | 136 kts | 98° |
| 2026-04-28 23:18 | 38.28086 | -0.54813 | 541 ft | 156 kts | 99° |
| 2026-04-28 23:19 | 38.27877 | -0.53543 | 1342 ft | 144 kts | 100° |
| 2026-04-28 23:19 | 38.27684 | -0.52248 | 1470 ft | 162 kts | 98° |
| 2026-04-28 23:19 | 38.27451 | -0.50668 | 1399 ft | 196 kts | 102° |
| 2026-04-28 23:19 | 38.26709 | -0.49109 | 1395 ft | 222 kts | 142° |
| 2026-04-28 23:20 | 38.25205 | -0.48475 | 1435 ft | 242 kts | 182° |
| 2026-04-28 23:20 | 38.23667 | -0.49183 | 1421 ft | 240 kts | 221° |
| 2026-04-28 23:20 | 38.22811 | -0.50975 | 1405 ft | 237 kts | 262° |
| 2026-04-28 23:20 | 38.23023 | -0.52996 | 1404 ft | 230 kts | 296° |
| 2026-04-28 23:21 | 38.23702 | -0.54909 | 1424 ft | 238 kts | 294° |
| 2026-04-28 23:21 | 38.24310 | -0.56830 | 1450 ft | 241 kts | 292° |
| 2026-04-28 23:21 | 38.24892 | -0.58787 | 1550 ft | 230 kts | 292° |
| 2026-04-28 23:21 | 38.25423 | -0.60654 | 1587 ft | 222 kts | 292° |
| 2026-04-28 23:22 | 38.25936 | -0.62510 | 1657 ft | 221 kts | 291° |
| 2026-04-28 23:22 | 38.26439 | -0.64376 | 1771 ft | 222 kts | 291° |
| 2026-04-28 23:22 | 38.26937 | -0.66246 | 1889 ft | 224 kts | 291° |
| 2026-04-28 23:22 | 38.27433 | -0.68133 | 2034 ft | 224 kts | 291° |
| 2026-04-28 23:23 | 38.27909 | -0.69968 | 1878 ft | 213 kts | 291° |
| 2026-04-28 23:23 | 38.28381 | -0.71798 | 1927 ft | 214 kts | 291° |
| 2026-04-28 23:23 | 38.28848 | -0.73610 | 2010 ft | 219 kts | 291° |
| 2026-04-28 23:23 | 38.29310 | -0.75412 | 2049 ft | 214 kts | 291° |
| 2026-04-28 23:24 | 38.29775 | -0.77224 | 2016 ft | 213 kts | 291° |
| 2026-04-28 23:24 | 38.30235 | -0.79019 | 1979 ft | 214 kts | 290° |
| 2026-04-28 23:24 | 38.30684 | -0.80775 | 1993 ft | 203 kts | 291° |
| 2026-04-28 23:24 | 38.31479 | -0.82204 | 1995 ft | 192 kts | 333° |
| 2026-04-28 23:25 | 38.32686 | -0.82450 | 2003 ft | 171 kts | 22° |
| 2026-04-28 23:25 | 38.33513 | -0.81451 | 2024 ft | 170 kts | 71° |
| 2026-04-28 23:25 | 38.33785 | -0.79992 | 2024 ft | 172 kts | 76° |
| 2026-04-28 23:25 | 38.34027 | -0.78506 | 1997 ft | 169 kts | 76° |
| 2026-04-28 23:26 | 38.34040 | -0.77008 | 1957 ft | 175 kts | 110° |
| 2026-04-28 23:26 | 38.33172 | -0.75939 | 1985 ft | 186 kts | 160° |
| 2026-04-28 23:26 | 38.31884 | -0.76075 | 1993 ft | 190 kts | 211° |
| 2026-04-28 23:26 | 38.31111 | -0.77364 | 1975 ft | 189 kts | 262° |
| 2026-04-28 23:27 | 38.31200 | -0.79014 | 1997 ft | 186 kts | 286° |
| 2026-04-28 23:27 | 38.31472 | -0.80616 | 2005 ft | 184 kts | 284° |
| 2026-04-28 23:27 | 38.31741 | -0.82200 | 1988 ft | 183 kts | 289° |
| 2026-04-28 23:27 | 38.32453 | -0.83384 | 1970 ft | 166 kts | 341° |
| 2026-04-28 23:28 | 38.33568 | -0.83618 | 2064 ft | 163 kts | 6° |
| 2026-04-28 23:28 | 38.34639 | -0.83243 | 2001 ft | 160 kts | 31° |
| 2026-04-28 23:28 | 38.35444 | -0.82303 | 2013 ft | 155 kts | 57° |
| 2026-04-28 23:28 | 38.35818 | -0.81009 | 2007 ft | 160 kts | 82° |
| 2026-04-28 23:29 | 38.35654 | -0.79597 | 1989 ft | 164 kts | 111° |
| 2026-04-28 23:29 | 38.34934 | -0.78451 | 1984 ft | 171 kts | 141° |
| 2026-04-28 23:29 | 38.33819 | -0.77909 | 1996 ft | 174 kts | 168° |
| 2026-04-28 23:29 | 38.32663 | -0.77472 | 1993 ft | 171 kts | 148° |
| 2026-04-28 23:30 | 38.31714 | -0.76584 | 1986 ft | 169 kts | 129° |
| 2026-04-28 23:30 | 38.31052 | -0.75374 | 1986 ft | 166 kts | 111° |
| 2026-04-28 23:30 | 38.30651 | -0.74025 | 1985 ft | 163 kts | 101° |
| 2026-04-28 23:30 | 38.30421 | -0.72669 | 2108 ft | 157 kts | 95° |
| 2026-04-28 23:31 | 38.30272 | -0.71368 | 2053 ft | 140 kts | 93° |
| 2026-04-28 23:31 | 38.30152 | -0.70143 | 1992 ft | 136 kts | 93° |
| 2026-04-28 23:31 | 38.30025 | -0.68939 | 1958 ft | 135 kts | 94° |
| 2026-04-28 23:31 | 38.29882 | -0.67745 | 1790 ft | 136 kts | 95° |
| 2026-04-28 23:32 | 38.29725 | -0.66569 | 1587 ft | 138 kts | 95° |
| 2026-04-28 23:32 | 38.29565 | -0.65371 | 1391 ft | 138 kts | 96° |
| 2026-04-28 23:32 | 38.29396 | -0.64153 | 1204 ft | 138 kts | 97° |
| 2026-04-28 23:32 | 38.29221 | -0.62939 | 1031 ft | 141 kts | 97° |
| 2026-04-28 23:33 | 38.29043 | -0.61718 | 857 ft | 144 kts | 98° |
| 2026-04-28 23:33 | 38.28860 | -0.60462 | 698 ft | 144 kts | 97° |
| 2026-04-28 23:33 | 38.28691 | -0.59232 | 493 ft | 139 kts | 97° |
| 2026-04-28 23:33 | 38.28523 | -0.58013 | 273 ft | 140 kts | 97° |
| 2026-04-28 23:34 | 38.28357 | -0.56805 | 126 ft | 139 kts | 101° |
| 2026-04-28 23:34 | 38.28192 | -0.55675 | 92 ft | 119 kts | 108° |
| 2026-04-28 23:34 | 38.28082 | -0.54885 | 66 ft | 43 kts | 97° |
| 2026-04-28 23:34 | 38.28042 | -0.54560 | 53 ft | 10 kts | 101° |
| 2026-04-28 23:35 | 38.28056 | -0.54474 | 50 ft | 12 kts | 36° |
| 2026-04-28 23:35 | 38.28144 | -0.54449 | 49 ft | 13 kts | 9° |
| 2026-04-28 23:35 | 38.28212 | -0.54501 | 51 ft | 12 kts | 281° |
| 2026-04-28 23:35 | 38.28225 | -0.54602 | 53 ft | 13 kts | 279° |
| 2026-04-28 23:36 | 38.28273 | -0.54937 | 65 ft | 43 kts | 279° |
| 2026-04-28 23:36 | 38.28311 | -0.55182 | 78 ft | 17 kts | 304° |
| 2026-04-28 23:36 | 38.28415 | -0.55168 | 78 ft | 16 kts | 16° |
| 2026-04-28 23:36 | 38.28516 | -0.55176 | 78 ft | 0 kts | 11° |